createdAt,value
2022-08-25T00:38:10.426Z,14.90
2022-08-25T00:44:33.200Z,14.90
2022-08-25T00:50:52.844Z,14.90
2022-08-25T00:57:18.318Z,14.70
2022-08-25T01:03:33.505Z,14.70
2022-08-25T01:09:38.466Z,14.70
2022-08-25T01:15:42.598Z,14.60
2022-08-25T01:21:52.642Z,14.40
2022-08-25T01:27:54.834Z,14.60
2022-08-25T01:33:57.946Z,14.70
2022-08-25T01:39:59.965Z,14.70
2022-08-25T01:46:02.548Z,14.90
2022-08-25T01:52:45.166Z,14.70
2022-08-25T01:58:49.097Z,14.60
2022-08-25T02:04:50.917Z,14.60
2022-08-25T02:10:55.763Z,14.40
2022-08-25T02:16:57.981Z,14.30
2022-08-25T02:23:31.562Z,14.30
2022-08-25T02:29:36.574Z,14.40
2022-08-25T02:35:38.748Z,14.40
2022-08-25T02:41:40.956Z,14.40
2022-08-25T02:47:42.973Z,14.20
2022-08-25T02:53:46.243Z,14.10
2022-08-25T02:59:48.497Z,14.00
2022-08-25T03:05:50.651Z,14.00
2022-08-25T03:11:52.458Z,13.90
2022-08-25T03:17:55.537Z,13.90
2022-08-25T03:23:57.383Z,14.00
2022-08-25T03:29:59.398Z,13.90
2022-08-25T03:36:01.167Z,13.70
2022-08-25T03:42:04.553Z,13.60
2022-08-25T03:48:06.439Z,13.50
2022-08-25T03:54:10.956Z,13.30
2022-08-25T04:00:13.039Z,13.40
2022-08-25T04:06:16.735Z,13.40
2022-08-25T04:12:21.776Z,13.40
2022-08-25T04:18:24.619Z,13.30
2022-08-25T04:24:26.521Z,13.30
2022-08-25T04:30:28.410Z,13.30
2022-08-25T04:36:30.433Z,13.40
2022-08-25T04:42:32.226Z,13.50
2022-08-25T04:48:34.674Z,13.50
2022-08-25T04:54:37.251Z,13.60
2022-08-25T05:00:40.664Z,13.80
2022-08-25T05:06:43.544Z,13.80
2022-08-25T05:12:48.252Z,14.00
2022-08-25T05:18:51.895Z,14.10
2022-08-25T05:24:56.403Z,14.40
2022-08-25T05:31:00.345Z,14.80
2022-08-25T05:37:08.205Z,15.30
2022-08-25T05:43:14.680Z,15.90
2022-08-25T05:49:16.538Z,16.10
2022-08-25T05:55:18.556Z,16.60
2022-08-25T06:01:43.575Z,17.00
2022-08-25T06:07:49.388Z,17.20
2022-08-25T06:13:51.175Z,17.60
2022-08-25T06:19:54.750Z,17.80
2022-08-25T06:25:56.631Z,17.80
2022-08-25T06:31:58.504Z,17.70
2022-08-25T06:38:01.302Z,17.90
2022-08-25T06:44:05.066Z,18.30
2022-08-25T06:50:07.750Z,18.50
2022-08-25T06:56:10.031Z,18.80
2022-08-25T07:02:11.910Z,19.10
2022-08-25T07:08:13.764Z,19.40
2022-08-25T07:14:17.609Z,19.50
2022-08-25T07:20:19.630Z,19.60
2022-08-25T07:26:40.854Z,19.90
2022-08-25T07:32:43.314Z,20.20
2022-08-25T07:38:45.559Z,20.40
2022-08-25T07:44:47.665Z,20.70
2022-08-25T07:50:49.751Z,21.00
2022-08-25T07:56:51.639Z,21.20
2022-08-25T08:02:55.595Z,21.40
2022-08-25T08:08:58.826Z,21.60
2022-08-25T08:15:01.430Z,21.80
2022-08-25T08:21:03.523Z,22.10
2022-08-25T08:27:07.655Z,22.40
2022-08-25T08:33:11.349Z,22.90
2022-08-25T08:39:13.845Z,23.20
2022-08-25T08:45:40.464Z,23.50
2022-08-25T08:51:54.997Z,23.90
2022-08-25T08:58:00.694Z,24.40
2022-08-25T09:04:13.275Z,25.30
2022-08-25T09:10:19.156Z,26.00
2022-08-25T09:16:56.171Z,26.40
2022-08-25T09:22:57.860Z,26.50
2022-08-25T09:29:16.324Z,26.90
2022-08-25T09:35:22.553Z,27.60
2022-08-25T09:41:51.507Z,27.70
2022-08-25T09:47:53.371Z,28.50
2022-08-25T09:54:02.781Z,28.50
2022-08-25T10:00:33.382Z,28.20
2022-08-25T10:06:47.146Z,27.40
2022-08-25T10:12:51.518Z,27.20
2022-08-25T10:19:12.304Z,27.00
2022-08-25T10:25:19.941Z,27.00
2022-08-25T10:31:45.148Z,27.10
2022-08-25T10:38:11.070Z,26.90
2022-08-25T10:44:48.149Z,27.10
2022-08-25T10:50:54.999Z,27.30
2022-08-25T10:57:18.224Z,28.00
2022-08-25T11:03:30.466Z,28.10
2022-08-25T11:09:51.129Z,27.70
2022-08-25T11:16:17.633Z,28.10
2022-08-25T11:22:32.376Z,28.20
2022-08-25T11:28:57.611Z,28.40
2022-08-25T11:35:02.397Z,28.50
2022-08-25T11:41:28.552Z,28.30
2022-08-25T11:47:53.371Z,28.70
2022-08-25T11:54:13.989Z,29.20
2022-08-25T12:00:19.582Z,29.10
2022-08-25T12:06:26.370Z,29.20
2022-08-25T12:12:37.877Z,29.00
2022-08-25T12:18:46.061Z,29.10
2022-08-25T12:24:56.630Z,29.40
2022-08-25T12:31:05.614Z,29.70
2022-08-25T12:37:16.796Z,29.60
2022-08-25T12:43:26.770Z,29.60
2022-08-25T12:49:35.809Z,29.70
2022-08-25T12:55:47.298Z,29.70
2022-08-25T13:02:36.585Z,29.70
2022-08-25T13:09:00.997Z,29.60
2022-08-25T13:15:02.975Z,29.90
2022-08-25T13:21:18.415Z,30.00
2022-08-25T13:34:02.245Z,30.10
2022-08-25T13:40:10.193Z,30.50
2022-08-25T13:46:15.358Z,30.50
2022-08-25T13:52:29.265Z,30.30
2022-08-25T13:58:44.492Z,30.30
2022-08-25T14:04:51.104Z,30.20
2022-08-25T14:11:14.893Z,30.10
2022-08-25T14:17:36.343Z,29.90
2022-08-25T14:23:40.489Z,29.30
2022-08-25T14:29:42.173Z,29.10
2022-08-25T14:35:48.049Z,29.10
2022-08-25T14:41:52.518Z,29.90
2022-08-25T14:48:01.876Z,30.50
2022-08-25T14:54:07.296Z,30.50
2022-08-25T15:00:11.835Z,30.20
2022-08-25T15:06:16.437Z,30.10
2022-08-25T15:12:37.418Z,30.30
2022-08-25T15:18:39.875Z,30.10
2022-08-25T15:24:43.762Z,29.80
2022-08-25T15:30:46.466Z,29.70
2022-08-25T15:36:48.883Z,29.80
2022-08-25T15:42:50.658Z,29.70
2022-08-25T15:48:52.506Z,29.70
2022-08-25T15:54:54.290Z,29.80
2022-08-25T16:00:56.643Z,30.10
2022-08-25T16:07:00.422Z,30.10
2022-08-25T16:13:03.495Z,29.80
2022-08-25T16:19:06.736Z,29.50
2022-08-25T16:25:09.033Z,29.10
2022-08-25T16:31:13.845Z,28.90
2022-08-25T16:37:15.650Z,28.70
2022-08-25T16:43:17.670Z,28.70
2022-08-25T16:49:19.662Z,28.70
2022-08-25T16:55:22.651Z,29.10
2022-08-25T17:01:26.762Z,28.90
2022-08-25T17:07:28.503Z,28.70
2022-08-25T17:13:31.337Z,29.10
2022-08-25T17:19:33.265Z,29.80
2022-08-25T17:25:41.280Z,31.10
2022-08-25T17:31:48.287Z,31.20
2022-08-25T17:37:50.570Z,31.30
2022-08-25T17:43:52.429Z,30.30
2022-08-25T17:49:55.398Z,29.00
2022-08-25T17:56:04.875Z,28.20
2022-08-25T18:02:06.739Z,27.70
2022-08-25T18:08:10.699Z,27.10
2022-08-25T18:14:14.321Z,26.60
2022-08-25T18:20:16.379Z,26.30
2022-08-25T18:26:24.665Z,25.80
2022-08-25T18:32:27.889Z,25.30
2022-08-25T18:38:49.553Z,24.70
2022-08-25T18:44:51.361Z,24.40
2022-08-25T18:50:54.279Z,24.10
2022-08-25T18:56:56.330Z,23.80
2022-08-25T19:02:59.720Z,23.50
2022-08-25T19:09:02.079Z,23.50
2022-08-25T19:15:05.432Z,23.20
2022-08-25T19:21:07.551Z,23.00
2022-08-25T19:27:17.854Z,22.80
2022-08-25T19:33:37.704Z,22.70
2022-08-25T19:40:17.648Z,22.70
2022-08-25T19:46:39.564Z,22.40
2022-08-25T19:52:44.072Z,22.30
2022-08-25T19:58:45.968Z,22.10
2022-08-25T20:04:52.378Z,22.10
2022-08-25T20:10:55.677Z,22.00
2022-08-25T20:17:01.797Z,21.90
2022-08-25T20:23:26.448Z,21.80
2022-08-25T20:29:31.083Z,21.90
2022-08-25T20:35:37.130Z,21.80
2022-08-25T20:41:42.191Z,21.80
2022-08-25T20:47:56.336Z,21.90
2022-08-25T20:53:59.034Z,21.80
2022-08-25T21:00:10.263Z,21.70
2022-08-25T21:06:14.381Z,21.60
2022-08-25T21:12:19.398Z,21.60
2022-08-25T21:18:21.140Z,21.60
2022-08-25T21:24:22.862Z,21.50
2022-08-25T21:30:24.602Z,21.50
2022-08-25T21:36:29.040Z,21.40
2022-08-25T21:42:30.763Z,21.50
2022-08-25T21:48:32.552Z,21.70
2022-08-25T21:54:34.337Z,21.90
2022-08-25T22:00:37.047Z,22.00
2022-08-25T22:06:39.646Z,22.20
2022-08-25T22:12:41.374Z,22.40
2022-08-25T22:18:43.548Z,22.60
2022-08-25T22:24:45.259Z,22.80
2022-08-25T22:30:47.961Z,22.70
2022-08-25T22:36:49.873Z,22.60
2022-08-25T22:42:53.553Z,22.50
2022-08-25T22:48:57.487Z,22.50
2022-08-25T22:54:59.571Z,22.50
2022-08-25T23:01:01.659Z,22.60
2022-08-25T23:07:04.001Z,22.80
2022-08-25T23:13:07.240Z,22.70
2022-08-25T23:19:13.972Z,22.70
2022-08-25T23:25:17.279Z,22.70
2022-08-25T23:31:20.014Z,22.60
2022-08-25T23:37:22.896Z,22.60
2022-08-25T23:43:25.603Z,22.60
2022-08-25T23:49:27.360Z,22.50
2022-08-25T23:55:33.466Z,22.50
